Time;durP1;ratioP1;P1;durP2;ratioP2;P2;SDS_P1;SDS_P2;PMS_P1;PMS_P2;Temp;Humidity;BMP_temperature;BMP_pressure;BME280_temperature;BME280_humidity;BME280_pressure;Samples;Min_cycle;Max_cycle;Signal;HPM_P1;HPM_P2
2020/12/22 00:02:29;;;;;;;3.92;3.20;;;17.40;52.10;;;;;;5013666;28;20187;-83
2020/12/22 00:05:03;;;;;;;4.75;3.20;;;17.40;52.10;;;;;;5028580;28;20758;-82
2020/12/22 00:07:43;;;;;;;3.42;2.90;;;17.40;52.10;;;;;;5029494;28;20152;-82
2020/12/22 00:10:13;;;;;;;4.60;3.13;;;17.40;52.20;;;;;;5028243;28;20263;-83
2020/12/22 00:12:45;;;;;;;4.93;3.10;;;17.40;52.20;;;;;;5012579;28;20215;-82
2020/12/22 00:15:15;;;;;;;4.68;2.88;;;17.40;52.20;;;;;;5013007;28;20171;-82
2020/12/22 00:17:47;;;;;;;4.97;3.60;;;17.40;52.20;;;;;;5012704;28;20218;-83
2020/12/22 00:20:24;;;;;;;4.40;3.28;;;17.40;52.10;;;;;;5012540;28;20278;-82
2020/12/22 00:22:59;;;;;;;3.55;3.00;;;17.40;52.10;;;;;;5012420;28;20179;-82
2020/12/22 00:25:40;;;;;;;4.95;3.22;;;17.40;52.20;;;;;;5012705;28;20189;-82
2020/12/22 00:28:23;;;;;;;3.53;3.00;;;17.40;52.30;;;;;;5027060;28;20183;-82
2020/12/22 00:30:54;;;;;;;4.93;3.00;;;17.40;52.20;;;;;;5029220;28;20163;-83
2020/12/22 00:33:26;;;;;;;4.20;3.25;;;17.40;52.30;;;;;;5010951;28;20179;-82
2020/12/22 00:36:06;;;;;;;3.97;3.10;;;17.40;52.30;;;;;;5012095;28;20170;-82
2020/12/22 00:38:47;;;;;;;4.60;3.00;;;17.40;52.40;;;;;;5027892;28;20206;-82
2020/12/22 00:41:27;;;;;;;4.70;3.30;;;17.40;52.30;;;;;;5012473;28;20207;-82
2020/12/22 00:44:02;;;;;;;5.28;3.10;;;17.40;52.40;;;;;;5028191;28;20159;-82
2020/12/22 00:46:40;;;;;;;4.65;3.30;;;17.40;52.30;;;;;;5012594;28;20281;-82
2020/12/22 00:49:22;;;;;;;4.70;3.08;;;17.40;52.40;;;;;;5012446;28;20182;-82
2020/12/22 00:52:16;;;;;;;4.47;3.28;;;17.40;52.40;;;;;;5011952;28;20302;-82
2020/12/22 00:54:58;;;;;;;4.55;3.08;;;17.40;52.40;;;;;;5013997;28;20207;-82
2020/12/22 00:57:29;;;;;;;4.35;3.33;;;17.40;52.50;;;;;;5027024;28;20164;-82
2020/12/22 01:00:08;;;;;;;4.32;3.20;;;17.40;52.60;;;;;;5011671;28;20171;-83
2020/12/22 01:03:05;;;;;;;4.57;3.22;;;17.30;52.60;;;;;;5028059;28;20178;-82
2020/12/22 01:05:35;;;;;;;4.28;3.13;;;17.30;52.50;;;;;;5027911;28;20243;-82
2020/12/22 01:08:06;;;;;;;4.15;3.08;;;17.40;52.50;;;;;;5010169;28;20175;-82
2020/12/22 01:10:40;;;;;;;3.78;2.78;;;17.40;52.50;;;;;;5027881;28;20164;-82
2020/12/22 01:13:09;;;;;;;4.55;3.10;;;17.40;52.50;;;;;;5020711;28;20279;-82
2020/12/22 01:16:02;;;;;;;4.18;3.20;;;17.30;52.50;;;;;;4976068;28;20172;-82
2020/12/22 01:18:43;;;;;;;5.38;3.22;;;17.40;52.50;;;;;;4932660;29;20241;-82
2020/12/22 01:21:48;;;;;;;3.85;2.88;;;17.40;52.30;;;;;;4917641;29;20225;-82
2020/12/22 01:24:22;;;;;;;4.15;3.38;;;17.40;52.30;;;;;;4933255;29;20173;-82
2020/12/22 01:27:09;;;;;;;3.63;3.10;;;17.40;52.30;;;;;;4933321;29;20200;-81
2020/12/22 01:30:12;;;;;;;4.75;3.15;;;17.40;52.50;;;;;;4936679;29;20217;-82
2020/12/22 01:32:51;;;;;;;4.05;2.75;;;17.30;52.60;;;;;;4933533;29;20166;-82
2020/12/22 01:35:30;;;;;;;4.07;3.35;;;17.40;52.50;;;;;;4916861;29;20196;-82
2020/12/22 01:38:06;;;;;;;3.17;2.83;;;17.40;52.60;;;;;;4934276;29;20162;-82
2020/12/22 01:40:47;;;;;;;3.97;3.35;;;17.40;52.50;;;;;;4917376;29;20432;-82
2020/12/22 01:43:20;;;;;;;3.35;2.88;;;17.30;52.60;;;;;;4933129;29;20189;-83
2020/12/22 01:46:35;;;;;;;4.78;3.17;;;17.20;52.60;;;;;;4948747;29;20251;-82
2020/12/22 01:49:05;;;;;;;4.25;3.20;;;17.30;52.70;;;;;;4932725;29;20185;-82
2020/12/22 01:51:34;;;;;;;3.95;3.10;;;17.30;52.80;;;;;;4916443;29;20340;-82
2020/12/22 01:54:17;;;;;;;4.03;3.00;;;17.30;52.80;;;;;;4932705;29;20172;-82
2020/12/22 01:56:56;;;;;;;4.25;3.38;;;17.30;52.70;;;;;;5007866;28;20160;-83
2020/12/22 01:59:34;;;;;;;3.50;2.90;;;17.30;52.70;;;;;;5008990;28;20195;-82
2020/12/22 02:02:10;;;;;;;4.00;2.90;;;17.30;52.80;;;;;;5008521;28;20184;-82
2020/12/22 02:04:39;;;;;;;3.53;3.05;;;17.30;52.70;;;;;;4974490;28;20164;-82
2020/12/22 02:07:38;;;;;;;4.03;2.83;;;17.30;52.60;;;;;;4974633;28;20555;-82
2020/12/22 02:10:17;;;;;;;3.78;2.90;;;17.30;52.70;;;;;;5009360;28;20184;-82
2020/12/22 02:12:56;;;;;;;3.88;2.90;;;17.30;52.70;;;;;;4974313;28;20223;-82
2020/12/22 02:15:48;;;;;;;4.45;2.97;;;17.30;52.70;;;;;;4974432;28;20207;-83
2020/12/22 02:18:20;;;;;;;4.22;3.35;;;17.30;52.80;;;;;;4991036;28;20164;-82
2020/12/22 02:20:55;;;;;;;4.03;2.97;;;17.30;52.80;;;;;;4972918;28;20180;-82
2020/12/22 02:23:59;;;;;;;3.53;2.88;;;17.30;52.80;;;;;;4991501;28;20174;-82
2020/12/22 02:26:55;;;;;;;3.88;2.95;;;17.30;52.80;;;;;;4992433;28;20175;-82
2020/12/22 02:29:27;;;;;;;2.60;2.40;;;17.30;52.80;;;;;;4991436;28;20163;-82
2020/12/22 02:32:07;;;;;;;3.65;3.05;;;17.40;53.50;;;;;;4989005;28;20625;-82
2020/12/22 02:34:40;;;;;;;3.63;3.00;;;17.30;52.80;;;;;;4991393;28;20167;-82
2020/12/22 02:37:13;;;;;;;3.55;2.85;;;17.30;52.80;;;;;;4974328;28;20172;-82
2020/12/22 02:39:43;;;;;;;5.63;2.72;;;17.30;52.80;;;;;;4990398;28;20179;-82
2020/12/22 02:42:18;;;;;;;3.38;2.80;;;17.30;52.80;;;;;;4974594;28;20215;-82
2020/12/22 02:44:53;;;;;;;3.90;3.10;;;17.40;52.80;;;;;;4974691;28;20243;-82
2020/12/22 02:47:30;;;;;;;4.05;3.00;;;17.30;52.80;;;;;;4974193;28;20176;-83
2020/12/22 02:50:18;;;;;;;4.03;3.28;;;17.30;52.80;;;;;;4973843;28;20187;-83
2020/12/22 02:52:57;;;;;;;4.15;2.92;;;17.30;52.90;;;;;;4990791;28;20152;-82
2020/12/22 02:55:43;;;;;;;4.07;3.15;;;17.30;53.00;;;;;;4974954;28;20168;-82
2020/12/22 02:58:14;;;;;;;3.63;3.00;;;17.30;53.00;;;;;;4990945;28;20255;-83
2020/12/22 03:00:55;;;;;;;3.85;2.80;;;17.30;53.00;;;;;;4990486;28;20204;-82
2020/12/22 03:03:24;;;;;;;3.65;2.80;;;17.30;53.00;;;;;;4991089;28;20167;-82
2020/12/22 03:06:01;;;;;;;3.63;3.03;;;17.30;53.00;;;;;;4989695;28;20172;-82
2020/12/22 03:08:32;;;;;;;4.20;2.83;;;17.30;52.90;;;;;;4989511;28;20195;-82
2020/12/22 03:11:03;;;;;;;3.72;3.08;;;17.30;52.90;;;;;;4989548;28;20164;-83
2020/12/22 03:13:39;;;;;;;3.60;3.00;;;17.30;53.00;;;;;;5006839;28;20225;-83
2020/12/22 03:16:35;;;;;;;3.65;3.03;;;17.30;53.00;;;;;;4994065;28;20220;-82
2020/12/22 03:19:07;;;;;;;4.25;2.90;;;17.30;53.10;;;;;;5025000;28;20183;-82
2020/12/22 03:21:38;;;;;;;4.03;3.03;;;17.30;53.00;;;;;;5025761;28;20187;-82
2020/12/22 03:24:12;;;;;;;3.45;3.05;;;17.30;53.00;;;;;;5024653;28;20155;-82
2020/12/22 03:26:46;;;;;;;3.67;2.90;;;17.30;53.10;;;;;;4993451;28;20179;-84
2020/12/22 03:29:28;;;;;;;4.22;2.92;;;17.30;53.70;;;;;;5008958;28;20194;-82
2020/12/22 03:32:09;;;;;;;4.30;3.15;;;17.30;53.00;;;;;;5024618;28;20186;-82
2020/12/22 03:34:47;;;;;;;5.25;3.03;;;17.30;53.10;;;;;;5009601;28;20251;-82
2020/12/22 03:37:28;;;;;;;3.88;3.30;;;17.30;53.00;;;;;;5026443;28;20213;-80
2020/12/22 03:40:26;;;;;;;3.55;3.08;;;17.30;53.00;;;;;;5025321;28;20174;-82
2020/12/22 03:43:07;;;;;;;4.43;2.90;;;17.30;53.10;;;;;;4953576;28;20404;-82
2020/12/22 03:45:37;;;;;;;3.42;2.70;;;17.30;53.10;;;;;;5009376;28;20183;-82
2020/12/22 03:48:19;;;;;;;3.70;2.90;;;17.30;53.20;;;;;;5025614;28;20190;-83
2020/12/22 03:51:11;;;;;;;3.67;2.85;;;17.30;53.10;;;;;;5007799;28;20183;-82
2020/12/22 03:54:23;;;;;;;4.70;3.00;;;17.30;53.10;;;;;;5024871;28;20266;-82
2020/12/22 03:57:08;;;;;;;3.58;2.90;;;17.30;53.10;;;;;;5012555;28;20179;-82
2020/12/22 03:59:49;;;;;;;4.25;3.10;;;17.20;53.10;;;;;;5025177;28;20183;-82
2020/12/22 04:02:39;;;;;;;3.65;3.00;;;17.20;53.20;;;;;;5025293;28;20193;-82
2020/12/22 04:05:11;;;;;;;4.63;2.95;;;17.30;53.10;;;;;;5024161;28;20175;-83
2020/12/22 04:08:00;;;;;;;3.67;2.85;;;17.20;53.20;;;;;;5008537;28;20195;-82
2020/12/22 04:10:37;;;;;;;4.18;2.80;;;17.30;53.20;;;;;;5009226;28;20175;-83
2020/12/22 04:13:09;;;;;;;3.58;2.92;;;17.30;53.20;;;;;;5007411;28;20167;-82
2020/12/22 04:16:02;;;;;;;3.30;2.80;;;17.30;53.20;;;;;;4972846;28;20207;-82
2020/12/22 04:18:41;;;;;;;4.18;2.88;;;17.30;53.20;;;;;;4989678;28;20622;-82
2020/12/22 04:21:24;;;;;;;3.08;2.58;;;17.30;53.10;;;;;;4973148;28;20215;-83
2020/12/22 04:23:54;;;;;;;3.38;2.55;;;17.20;53.20;;;;;;4973656;28;20183;-82
2020/12/22 04:26:25;;;;;;;3.95;2.90;;;17.20;53.20;;;;;;4988772;28;20152;-81
2020/12/22 04:28:59;;;;;;;4.22;2.90;;;17.20;53.30;;;;;;4989095;28;20191;-82
2020/12/22 04:31:39;;;;;;;3.38;2.95;;;17.20;53.30;;;;;;4974347;28;20190;-82
2020/12/22 04:34:21;;;;;;;3.95;2.85;;;17.30;53.30;;;;;;4977893;28;20226;-82
2020/12/22 04:36:58;;;;;;;3.33;2.90;;;17.20;53.30;;;;;;4975960;28;20167;-82
2020/12/22 04:39:44;;;;;;;4.20;2.70;;;17.30;53.30;;;;;;4993682;28;20156;-82
2020/12/22 04:42:26;;;;;;;3.63;2.78;;;17.30;53.20;;;;;;4976297;28;20655;-82
2020/12/22 04:45:03;;;;;;;3.25;2.72;;;17.20;53.30;;;;;;4976401;28;20187;-82
2020/12/22 04:47:43;;;;;;;3.33;2.60;;;17.30;53.30;;;;;;4992768;28;20187;-82
2020/12/22 04:50:20;;;;;;;3.80;3.03;;;17.20;53.30;;;;;;4944807;28;20712;-82
2020/12/22 04:52:51;;;;;;;3.40;2.80;;;17.20;53.30;;;;;;4992134;28;20260;-82
2020/12/22 04:55:32;;;;;;;3.92;3.05;;;17.20;53.40;;;;;;5010170;28;20156;-82
2020/12/22 04:58:21;;;;;;;3.15;2.53;;;17.20;53.20;;;;;;4975014;28;20195;-82
2020/12/22 05:00:53;;;;;;;3.15;2.72;;;17.30;52.90;;;;;;5009591;28;20183;-81
2020/12/22 05:03:53;;;;;;;4.07;2.53;;;17.30;52.80;;;;;;4991693;28;20180;-82
2020/12/22 05:06:42;;;;;;;3.95;2.83;;;17.30;52.60;;;;;;4979310;28;20175;-82
2020/12/22 05:09:29;;;;;;;3.17;2.50;;;17.40;52.30;;;;;;4994158;28;20160;-81
2020/12/22 05:12:09;;;;;;;3.30;2.60;;;17.50;52.30;;;;;;4976399;28;20172;-81
2020/12/22 05:14:37;;;;;;;3.85;2.95;;;17.50;52.30;;;;;;5000553;28;20294;-82
2020/12/22 05:17:28;;;;;;;2.85;2.53;;;17.50;52.40;;;;;;4995442;28;20183;-82
2020/12/22 05:20:04;;;;;;;3.72;2.83;;;17.40;52.50;;;;;;4998248;28;20594;-82
2020/12/22 05:22:38;;;;;;;3.33;2.53;;;17.40;52.50;;;;;;5010978;28;20218;-82
2020/12/22 05:25:15;;;;;;;3.63;2.58;;;17.40;52.20;;;;;;5010565;28;20182;-82
2020/12/22 05:28:03;;;;;;;3.92;2.42;;;17.50;52.10;;;;;;5027419;28;20531;-82
2020/12/22 05:30:39;;;;;;;4.03;2.80;;;17.50;52.30;;;;;;5027691;28;20160;-82
2020/12/22 05:33:07;;;;;;;3.90;2.70;;;17.40;52.10;;;;;;5027792;28;20178;-82
2020/12/22 05:35:46;;;;;;;3.15;2.50;;;17.50;52.20;;;;;;5010319;28;20183;-82
2020/12/22 05:38:19;;;;;;;2.78;2.15;;;17.40;52.30;;;;;;5027967;28;20180;-82
2020/12/22 05:40:52;;;;;;;2.78;2.35;;;17.40;52.10;;;;;;5027624;28;20217;-82
2020/12/22 05:43:21;;;;;;;2.55;2.20;;;17.50;51.90;;;;;;5026712;28;20155;-82
2020/12/22 05:46:00;;;;;;;3.55;2.70;;;17.40;52.00;;;;;;5027677;28;20156;-82
2020/12/22 05:48:43;;;;;;;3.00;2.53;;;17.40;52.20;;;;;;5026791;28;20166;-82
2020/12/22 05:51:19;;;;;;;3.58;2.70;;;17.40;52.10;;;;;;5027147;28;20266;-82
2020/12/22 05:53:49;;;;;;;2.90;2.60;;;17.40;52.00;;;;;;5011459;28;20175;-81
2020/12/22 05:56:24;;;;;;;3.50;2.60;;;17.50;52.10;;;;;;5027375;28;20258;-81
2020/12/22 05:58:59;;;;;;;3.28;2.53;;;17.40;51.90;;;;;;5010314;28;20178;-81
2020/12/22 06:01:41;;;;;;;2.80;2.40;;;17.40;51.90;;;;;;5008728;28;20195;-82
2020/12/22 06:04:08;;;;;;;3.15;2.42;;;17.50;51.90;;;;;;5025224;28;20174;-81
2020/12/22 06:06:36;;;;;;;2.60;2.40;;;17.50;51.70;;;;;;5008704;28;20163;-81
2020/12/22 06:09:04;;;;;;;3.00;2.40;;;17.40;51.80;;;;;;5025925;28;20148;-81
2020/12/22 06:11:42;;;;;;;3.10;2.58;;;17.40;52.00;;;;;;5008455;28;20174;-82
2020/12/22 06:14:11;;;;;;;2.95;2.40;;;17.40;52.00;;;;;;5023890;28;20220;-81
2020/12/22 06:16:38;;;;;;;3.22;2.30;;;17.50;51.60;;;;;;4974871;28;20203;-82
2020/12/22 06:19:08;;;;;;;2.22;2.03;;;17.50;51.60;;;;;;4990424;28;20267;-81
2020/12/22 06:21:44;;;;;;;3.22;2.67;;;17.50;51.60;;;;;;4990393;28;20208;-82
2020/12/22 06:24:14;;;;;;;3.00;2.60;;;17.60;51.40;;;;;;4973644;28;20168;-81
2020/12/22 06:26:58;;;;;;;2.78;2.33;;;17.60;51.00;;;;;;4973387;28;20566;-82
2020/12/22 06:29:28;;;;;;;2.88;2.40;;;17.60;51.20;;;;;;4990292;28;20163;-81
2020/12/22 06:32:17;;;;;;;3.13;2.47;;;17.70;51.10;;;;;;4989947;28;20188;-81
2020/12/22 06:34:47;;;;;;;2.88;2.60;;;17.60;51.30;;;;;;4989209;28;20206;-81
2020/12/22 06:37:43;;;;;;;2.30;2.10;;;17.60;51.30;;;;;;4989290;28;20163;-81
2020/12/22 06:40:14;;;;;;;3.50;2.47;;;17.70;50.90;;;;;;4990631;28;20156;-83
2020/12/22 06:42:45;;;;;;;3.38;2.35;;;17.70;50.90;;;;;;4973517;28;20223;-82
2020/12/22 06:45:30;;;;;;;2.95;2.30;;;17.70;50.90;;;;;;4974002;28;20617;-81
2020/12/22 06:47:59;;;;;;;2.80;2.38;;;17.70;50.90;;;;;;4973439;28;20591;-82
2020/12/22 06:50:47;;;;;;;3.17;2.58;;;17.70;51.00;;;;;;4990060;28;20216;-81
2020/12/22 06:53:35;;;;;;;2.50;2.20;;;17.70;50.90;;;;;;5007013;28;20247;-81
2020/12/22 06:56:11;;;;;;;2.70;2.40;;;17.70;51.10;;;;;;4973560;28;20179;-82
2020/12/22 06:58:49;;;;;;;2.60;2.40;;;17.60;51.10;;;;;;4973631;28;20267;-82
2020/12/22 07:01:28;;;;;;;3.35;2.53;;;17.70;51.00;;;;;;4973667;28;20207;-83
2020/12/22 07:04:23;;;;;;;3.17;2.40;;;17.70;51.00;;;;;;4989451;28;20282;-82
2020/12/22 07:06:58;;;;;;;2.67;2.25;;;17.70;50.70;;;;;;4988130;28;20244;-82
2020/12/22 07:09:34;;;;;;;2.50;2.22;;;17.70;50.80;;;;;;4973321;28;20184;-82
2020/12/22 07:12:19;;;;;;;2.50;2.30;;;17.60;51.20;;;;;;4974055;28;20693;-83
2020/12/22 07:14:49;;;;;;;3.65;2.42;;;17.60;50.90;;;;;;4985867;28;20226;-81
2020/12/22 07:17:24;;;;;;;2.78;2.22;;;17.70;50.70;;;;;;5008994;28;20175;-82
2020/12/22 07:20:01;;;;;;;3.47;2.63;;;17.70;50.80;;;;;;5009407;28;20171;-82
2020/12/22 07:22:28;;;;;;;2.90;2.50;;;17.70;50.70;;;;;;5007863;28;20274;-81
2020/12/22 07:25:01;;;;;;;3.42;2.70;;;17.70;51.00;;;;;;5008235;28;20162;-81
2020/12/22 07:27:37;;;;;;;3.25;2.38;;;17.70;50.80;;;;;;5008453;28;20508;-81
2020/12/22 07:30:17;;;;;;;2.60;1.90;;;17.80;50.50;;;;;;5024085;28;20155;-82
2020/12/22 07:32:48;;;;;;;3.25;2.20;;;17.80;50.10;;;;;;5025431;28;20190;-81
2020/12/22 07:35:18;;;;;;;3.50;2.60;;;17.80;50.50;;;;;;5007216;28;20202;-81
2020/12/22 07:37:47;;;;;;;3.28;2.13;;;17.70;51.50;;;;;;5025972;28;20182;-81
2020/12/22 07:40:14;;;;;;;2.45;2.00;;;17.70;50.40;;;;;;5024270;28;20170;-81
2020/12/22 07:42:40;;;;;;;2.40;2.20;;;17.70;50.70;;;;;;5025074;28;20191;-81
2020/12/22 07:45:10;;;;;;;2.63;2.20;;;17.80;50.30;;;;;;5006796;28;20167;-81
2020/12/22 07:47:37;;;;;;;4.07;2.30;;;17.80;50.40;;;;;;5022850;28;20148;-81
2020/12/22 07:50:16;;;;;;;2.90;2.38;;;17.70;50.30;;;;;;5024275;28;20275;-81
2020/12/22 07:52:55;;;;;;;2.50;2.30;;;17.70;50.50;;;;;;5023575;28;20171;-81
2020/12/22 07:55:41;;;;;;;2.53;2.33;;;17.70;50.60;;;;;;5022639;28;20178;-81
2020/12/22 07:58:12;;;;;;;2.50;2.17;;;17.70;50.60;;;;;;5022593;28;20174;-81
2020/12/22 08:00:48;;;;;;;2.80;2.08;;;17.70;50.20;;;;;;5021532;28;20156;-82
2020/12/22 08:03:20;;;;;;;3.40;2.35;;;17.80;50.20;;;;;;5022306;28;20163;-82
2020/12/22 08:05:59;;;;;;;2.65;2.20;;;17.80;50.60;;;;;;5008921;28;20180;-82
2020/12/22 08:08:36;;;;;;;2.95;2.30;;;17.70;50.70;;;;;;5011427;28;20530;-81
2020/12/22 08:11:18;;;;;;;2.90;2.30;;;17.70;50.80;;;;;;5012281;28;20186;-81
2020/12/22 08:14:04;;;;;;;2.78;2.30;;;17.60;50.80;;;;;;5027561;28;20654;-82
2020/12/22 08:16:33;;;;;;;2.38;2.13;;;17.60;51.20;;;;;;5011785;28;20249;-81
2020/12/22 08:19:12;;;;;;;2.95;2.47;;;17.60;50.80;;;;;;5010335;28;20179;-81
2020/12/22 08:21:54;;;;;;;2.80;2.10;;;17.70;50.80;;;;;;5008200;28;20258;-81
2020/12/22 08:24:28;;;;;;;2.40;2.20;;;17.70;50.80;;;;;;5023156;28;20234;-81
2020/12/22 08:27:00;;;;;;;2.70;2.40;;;17.70;50.30;;;;;;5005343;28;20178;-81
2020/12/22 08:29:32;;;;;;;2.83;2.30;;;17.70;50.50;;;;;;5023186;28;20159;-81
2020/12/22 08:32:24;;;;;;;2.40;2.20;;;17.70;50.60;;;;;;5023612;28;20163;-81
2020/12/22 08:35:14;;;;;;;2.88;2.47;;;17.60;50.90;;;;;;5023773;28;20294;-81
2020/12/22 08:37:53;;;;;;;2.90;2.20;;;17.70;50.30;;;;;;5004431;28;20206;-81
2020/12/22 08:40:36;;;;;;;2.90;2.30;;;17.70;50.30;;;;;;5023836;28;20234;-81
2020/12/22 08:43:24;;;;;;;3.00;2.13;;;17.90;50.10;;;;;;5023235;28;20255;-81
2020/12/22 08:45:52;;;;;;;2.85;2.08;;;17.90;49.90;;;;;;4941986;28;20234;-81
2020/12/22 08:48:20;;;;;;;4.30;2.30;;;17.90;50.10;;;;;;5022441;28;20693;-81
2020/12/22 08:52:00;;;;;;;;;;;;;;;;;;;;;
2020/12/22 08:54:35;;;;;;;3.50;2.40;;;17.80;50.10;;;;;;4975301;28;20247;-82
2020/12/22 08:57:27;;;;;;;3.00;2.45;;;17.80;50.20;;;;;;5022387;28;20155;-81
2020/12/22 09:00:41;;;;;;;2.50;2.22;;;17.80;50.10;;;;;;5020711;28;20230;-81
2020/12/22 09:07:20;;;;;;;2.60;2.40;;;17.80;50.10;;;;;;5023802;28;20163;-81
2020/12/22 09:10:32;;;;;;;3.80;2.40;;;17.90;49.80;;;;;;4984907;28;20286;-81
2020/12/22 09:13:16;;;;;;;2.25;2.05;;;18.00;49.90;;;;;;5024143;28;20160;-81
2020/12/22 09:16:23;;;;;;;3.45;2.58;;;17.90;50.10;;;;;;5021082;28;20590;-80
2020/12/22 09:22:45;;;;;;;2.38;1.90;;;17.80;50.10;;;;;;5025446;28;20579;-81
2020/12/22 09:25:22;;;;;;;2.80;2.25;;;17.80;50.10;;;;;;5023799;28;20252;-81
2020/12/22 09:28:24;;;;;;;2.85;2.40;;;17.80;50.20;;;;;;5023950;28;20147;-81
2020/12/22 09:31:41;;;;;;;4.13;2.60;;;17.90;50.10;;;;;;5022874;28;20214;-81
2020/12/22 09:35:28;;;;;;;;;;;;;;;;;;;;;
2020/12/22 09:39:22;;;;;;;;;;;;;;;;;;;;;
2020/12/22 09:41:22;;;;;;;3.90;2.28;;;17.80;50.10;;;;;;4902391;29;20261;-82
2020/12/22 09:43:54;;;;;;;2.65;2.25;;;17.80;49.90;;;;;;4913551;29;20186;-81
2020/12/22 09:46:27;;;;;;;5.47;2.63;;;17.90;49.80;;;;;;4929941;29;20190;-81
2020/12/22 09:49:01;;;;;;;4.45;2.50;;;17.90;49.70;;;;;;4944372;29;20188;-82
2020/12/22 09:51:41;;;;;;;4.30;2.53;;;17.90;49.90;;;;;;4913531;29;20209;-80
2020/12/22 10:04:32;;;;;;;4.10;2.50;;;17.80;50.20;;;;;;4943377;29;20184;-80
2020/12/22 10:07:03;;;;;;;2.97;2.35;;;17.80;50.10;;;;;;4913008;29;20186;-80
2020/12/22 10:09:58;;;;;;;4.28;2.40;;;17.80;50.00;;;;;;4912596;29;20249;-81
2020/12/22 10:15:51;;;;;;;4.30;2.65;;;18.00;49.70;;;;;;5014466;28;20254;-81
2020/12/22 10:18:47;;;;;;;3.42;2.40;;;17.90;49.50;;;;;;5003145;28;20160;-80
2020/12/22 10:21:35;;;;;;;3.63;2.47;;;17.90;49.50;;;;;;4988017;28;20212;-81
2020/12/22 10:24:08;;;;;;;3.15;2.15;;;18.00;49.70;;;;;;4987014;28;20149;-81
2020/12/22 10:34:17;;;;;;;2.83;2.20;;;17.90;50.10;;;;;;4942041;29;20185;-81
2020/12/22 10:37:07;;;;;;;3.33;2.38;;;17.90;49.80;;;;;;4927255;29;20210;-81
2020/12/22 11:03:24;;;;;;;3.83;3.05;;;18.10;49.20;;;;;;4873868;29;20194;-82
2020/12/22 11:16:36;;;;;;;3.95;2.90;;;17.90;49.70;;;;;;4916855;29;20274;-82
2020/12/22 11:19:54;;;;;;;3.83;2.90;;;18.00;49.10;;;;;;4907380;29;20661;-81
2020/12/22 13:01:10;;;;;;;4.10;3.38;;;18.20;48.90;;;;;;5043166;28;20201;-82
2020/12/22 13:04:17;;;;;;;5.10;3.58;;;18.20;48.90;;;;;;5015282;28;20162;-83
2020/12/22 13:07:38;;;;;;;5.18;3.70;;;18.20;49.00;;;;;;5046454;28;20209;-80
2020/12/22 13:14:11;;;;;;;4.50;2.95;;;18.20;49.10;;;;;;5048629;28;20201;-82
2020/12/22 13:16:47;;;;;;;6.30;3.95;;;18.10;49.40;;;;;;5025602;28;20309;-81
2020/12/22 13:19:41;;;;;;;5.30;3.50;;;18.00;49.30;;;;;;5013848;28;20189;-81
2020/12/22 13:22:30;;;;;;;4.55;3.25;;;18.10;49.30;;;;;;5029358;28;20186;-81
2020/12/22 13:25:09;;;;;;;4.30;3.38;;;18.10;49.10;;;;;;5011079;28;20179;-81
2020/12/22 13:27:36;;;;;;;5.28;3.60;;;18.10;49.00;;;;;;5011719;28;20162;-82
2020/12/22 13:30:17;;;;;;;4.43;3.03;;;18.10;49.10;;;;;;5029579;28;20167;-82
2020/12/22 13:32:43;;;;;;;4.75;3.40;;;18.10;49.00;;;;;;5045871;28;20163;-82
2020/12/22 13:35:35;;;;;;;5.00;3.33;;;18.10;49.20;;;;;;5028277;28;20161;-81
2020/12/22 13:38:23;;;;;;;4.35;3.40;;;18.10;49.20;;;;;;5046064;28;20246;-82
2020/12/22 13:40:51;;;;;;;4.13;3.00;;;18.00;49.30;;;;;;5029167;28;20167;-81
2020/12/22 13:43:18;;;;;;;4.72;3.35;;;18.00;49.30;;;;;;5012722;28;20210;-82
2020/12/22 13:46:26;;;;;;;4.72;3.38;;;17.90;49.60;;;;;;5012147;28;20174;-83
2020/12/22 13:48:52;;;;;;;5.40;3.45;;;18.00;49.60;;;;;;5009915;28;20174;-80
2020/12/22 13:51:23;;;;;;;4.53;3.28;;;17.90;49.70;;;;;;5013251;28;20171;-80
2020/12/22 13:54:07;;;;;;;4.32;3.40;;;18.00;49.20;;;;;;5031743;28;20622;-83
2020/12/22 13:56:37;;;;;;;4.93;3.40;;;18.00;49.30;;;;;;5033170;28;20163;-82
2020/12/22 13:59:15;;;;;;;4.30;3.30;;;18.00;49.40;;;;;;5015308;28;20253;-82
2020/12/22 14:01:40;;;;;;;5.35;3.40;;;18.10;48.60;;;;;;5013234;28;20253;-83
2020/12/22 14:04:25;;;;;;;4.43;3.08;;;18.00;49.30;;;;;;4999711;28;20214;-82
2020/12/22 14:06:58;;;;;;;5.88;3.20;;;18.00;49.30;;;;;;5050251;28;20162;-84
2020/12/22 14:09:34;;;;;;;4.22;3.28;;;18.10;48.90;;;;;;5048443;28;20155;-84
2020/12/22 14:12:07;;;;;;;4.00;3.22;;;18.20;48.60;;;;;;5029794;28;20170;-83
2020/12/22 14:14:38;;;;;;;4.47;3.50;;;18.20;48.70;;;;;;5030156;28;20163;-83
2020/12/22 14:17:28;;;;;;;4.65;3.45;;;18.10;49.10;;;;;;5029589;28;20159;-80
2020/12/22 14:19:58;;;;;;;3.80;3.00;;;18.10;49.20;;;;;;4942402;28;20217;-82
2020/12/22 14:22:36;;;;;;;5.07;3.28;;;18.10;49.50;;;;;;5014763;28;20229;-82
2020/12/22 14:25:10;;;;;;;3.90;3.05;;;18.10;49.20;;;;;;5013461;28;20238;-82
2020/12/22 14:27:51;;;;;;;5.20;3.20;;;18.10;49.10;;;;;;5015287;28;20186;-86
2020/12/22 14:30:24;;;;;;;4.03;3.13;;;18.10;48.90;;;;;;5015820;28;20262;-84
2020/12/22 14:33:03;;;;;;;4.85;3.45;;;18.20;49.00;;;;;;5054700;28;20676;-84
2020/12/22 14:36:00;;;;;;;4.60;3.20;;;18.10;49.20;;;;;;5034365;28;20222;-84
2020/12/22 14:38:45;;;;;;;4.28;3.20;;;18.10;48.70;;;;;;5035754;28;20652;-84
2020/12/22 14:41:24;;;;;;;4.07;3.00;;;18.20;48.90;;;;;;5018278;28;20158;-84
2020/12/22 14:43:53;;;;;;;5.32;3.25;;;18.10;48.90;;;;;;5031384;28;20186;-86
2020/12/22 14:46:28;;;;;;;4.85;3.40;;;18.10;48.90;;;;;;5016101;28;20178;-85
2020/12/22 14:48:55;;;;;;;3.83;2.88;;;18.20;48.80;;;;;;5013107;28;20243;-86
2020/12/22 14:51:23;;;;;;;3.75;3.03;;;18.20;48.60;;;;;;5031855;28;20154;-83
2020/12/22 14:54:01;;;;;;;4.22;3.10;;;18.20;48.50;;;;;;5016988;28;20261;-83
2020/12/22 14:56:37;;;;;;;5.03;3.38;;;18.20;48.70;;;;;;5013778;28;20163;-83
2020/12/22 14:59:32;;;;;;;5.03;2.90;;;18.20;48.70;;;;;;5016502;28;20177;-84
2020/12/22 15:02:01;;;;;;;5.97;3.42;;;18.20;49.20;;;;;;5048426;28;20191;-84
2020/12/22 15:04:29;;;;;;;4.32;2.92;;;18.20;48.50;;;;;;5013265;28;20218;-84
2020/12/22 15:06:58;;;;;;;4.25;3.05;;;18.20;49.30;;;;;;5012428;28;20166;-83
2020/12/22 15:09:25;;;;;;;4.78;3.15;;;18.20;48.60;;;;;;4996779;28;20245;-84
2020/12/22 15:11:54;;;;;;;5.85;3.42;;;18.20;48.50;;;;;;5012037;28;20182;-82
2020/12/22 15:14:21;;;;;;;4.93;3.10;;;18.20;48.90;;;;;;5012361;28;20189;-83
2020/12/22 15:16:49;;;;;;;5.55;3.05;;;18.10;49.00;;;;;;5010849;28;20221;-82
2020/12/22 15:19:16;;;;;;;4.28;3.25;;;18.20;48.50;;;;;;5012261;28;20169;-83
2020/12/22 15:21:54;;;;;;;4.60;3.20;;;18.10;48.90;;;;;;5028008;28;20277;-83
2020/12/22 15:24:24;;;;;;;3.67;3.20;;;18.10;48.80;;;;;;5028210;28;20166;-83
2020/12/22 15:26:52;;;;;;;4.97;3.22;;;18.10;48.80;;;;;;5027679;28;20155;-83
2020/12/22 15:29:29;;;;;;;5.25;2.97;;;18.10;49.20;;;;;;5028511;28;20621;-80
2020/12/22 15:32:05;;;;;;;6.97;3.28;;;18.20;48.90;;;;;;5029429;28;20186;-83
2020/12/22 15:34:35;;;;;;;5.40;3.30;;;18.20;49.00;;;;;;5046603;28;20666;-84
2020/12/22 15:37:15;;;;;;;4.43;3.33;;;18.10;49.10;;;;;;5028396;28;20188;-85
2020/12/22 15:39:42;;;;;;;5.07;2.80;;;18.20;48.80;;;;;;4979889;28;20186;-84
2020/12/22 15:42:12;;;;;;;4.85;3.35;;;18.20;48.70;;;;;;5010094;28;20191;-82
2020/12/22 15:44:42;;;;;;;5.15;3.35;;;18.20;48.70;;;;;;5011504;28;20163;-83
2020/12/22 15:47:14;;;;;;;5.80;3.35;;;18.20;48.50;;;;;;5028607;28;20153;-83
2020/12/22 15:49:40;;;;;;;6.13;3.22;;;18.20;48.80;;;;;;5013092;28;20155;-83
2020/12/22 15:52:10;;;;;;;7.57;3.30;;;18.20;49.40;;;;;;5011977;28;20643;-82
2020/12/22 15:54:48;;;;;;;6.13;3.25;;;18.10;49.40;;;;;;5012338;28;20205;-82
2020/12/22 15:57:17;;;;;;;5.38;3.30;;;18.10;49.40;;;;;;5011620;28;20652;-82
2020/12/22 15:59:47;;;;;;;6.75;3.38;;;18.10;49.50;;;;;;5012345;28;20170;-83
2020/12/22 16:02:22;;;;;;;4.38;2.97;;;18.10;49.20;;;;;;5028510;28;20182;-82
2020/12/22 16:05:03;;;;;;;4.47;2.85;;;18.10;49.10;;;;;;5030474;28;20216;-82
2020/12/22 16:07:30;;;;;;;6.70;3.17;;;18.20;49.10;;;;;;4996323;28;20175;-82
2020/12/22 16:09:57;;;;;;;4.13;3.20;;;18.20;48.70;;;;;;5027519;28;20159;-82
2020/12/22 16:12:31;;;;;;;6.22;3.30;;;18.20;48.80;;;;;;5044850;28;20159;-82
2020/12/22 16:15:12;;;;;;;4.90;3.38;;;18.20;49.00;;;;;;5044192;28;20162;-83
2020/12/22 16:17:47;;;;;;;5.03;3.10;;;18.20;48.70;;;;;;5010088;28;20177;-85
2020/12/22 16:20:19;;;;;;;6.57;3.38;;;18.20;48.90;;;;;;5010444;28;20174;-82
2020/12/22 16:22:46;;;;;;;5.82;3.47;;;18.20;49.00;;;;;;5009591;28;20202;-83
2020/12/22 16:25:13;;;;;;;4.30;3.20;;;18.20;48.90;;;;;;5045334;28;20171;-82
2020/12/22 16:27:48;;;;;;;6.95;3.70;;;18.20;49.20;;;;;;5011856;28;20201;-81
2020/12/22 16:30:16;;;;;;;5.05;3.50;;;18.30;49.00;;;;;;5014879;28;20277;-82
2020/12/22 16:32:41;;;;;;;7.13;3.40;;;18.20;49.10;;;;;;5014852;28;20224;-82
2020/12/22 16:35:09;;;;;;;5.40;3.15;;;18.20;49.10;;;;;;5013984;28;20171;-82
2020/12/22 16:37:36;;;;;;;5.53;3.33;;;18.20;49.20;;;;;;5013867;28;20224;-82